createdAt,value
2023-04-29T00:00:09.136Z,791.70
2023-04-29T00:02:38.617Z,777.67
2023-04-29T00:05:08.046Z,800.20
2023-04-29T00:07:37.398Z,789.47
2023-04-29T00:10:08.051Z,779.55
2023-04-29T00:12:36.497Z,777.55
2023-04-29T00:15:06.233Z,782.95
2023-04-29T00:17:34.651Z,779.25
2023-04-29T00:20:03.306Z,779.53
2023-04-29T00:22:31.685Z,778.65
2023-04-29T00:25:00.092Z,780.03
2023-04-29T00:27:31.946Z,758.53
2023-04-29T00:30:00.385Z,780.38
2023-04-29T00:32:28.838Z,756.83
2023-04-29T00:34:57.337Z,779.00
2023-04-29T00:37:25.787Z,765.60
2023-04-29T00:39:54.193Z,760.25
2023-04-29T00:42:22.713Z,798.72
2023-04-29T00:44:52.461Z,754.13
2023-04-29T00:47:20.790Z,773.50
2023-04-29T00:49:49.476Z,755.90
2023-04-29T00:52:19.392Z,760.25
2023-04-29T00:54:48.770Z,771.15
2023-04-29T00:57:17.514Z,779.63
2023-04-29T00:59:45.903Z,746.20
2023-04-29T01:02:15.797Z,763.22
2023-04-29T01:04:44.539Z,780.75
2023-04-29T01:07:16.921Z,761.97
2023-04-29T01:09:55.114Z,767.53
2023-04-29T01:12:29.976Z,767.97
2023-04-29T01:15:05.644Z,764.78
2023-04-29T01:17:41.348Z,765.83
2023-04-29T01:20:11.531Z,772.22
2023-04-29T01:22:40.138Z,772.63
2023-04-29T01:25:10.784Z,795.67
2023-04-29T01:27:43.528Z,771.38
2023-04-29T01:30:18.617Z,786.97
2023-04-29T01:32:54.112Z,765.20
2023-04-29T01:35:32.028Z,778.72
2023-04-29T01:38:06.221Z,771.78
2023-04-29T01:40:41.484Z,759.03
2023-04-29T01:43:11.859Z,772.10
2023-04-29T01:45:41.917Z,785.40
2023-04-29T01:48:11.118Z,774.30
2023-04-29T01:50:39.473Z,779.85
2023-04-29T01:53:08.311Z,738.75
2023-04-29T01:55:38.235Z,760.50
2023-04-29T01:58:06.575Z,779.63
2023-04-29T02:00:34.934Z,746.70
2023-04-29T02:03:03.334Z,752.22
2023-04-29T02:05:33.964Z,755.20
2023-04-29T02:08:02.900Z,763.25
2023-04-29T02:10:31.311Z,774.13
2023-04-29T02:13:01.300Z,792.50
2023-04-29T02:15:29.779Z,773.35
2023-04-29T02:17:58.203Z,779.17
2023-04-29T02:20:27.002Z,762.65
2023-04-29T02:22:55.313Z,783.50
2023-04-29T02:25:23.641Z,770.92
2023-04-29T02:27:52.028Z,786.90
2023-04-29T02:30:21.719Z,748.15
2023-04-29T02:32:50.114Z,789.97
2023-04-29T02:35:18.680Z,773.70
2023-04-29T02:37:46.993Z,760.70
2023-04-29T02:40:15.564Z,717.65
2023-04-29T02:42:43.923Z,744.08
2023-04-29T02:45:13.390Z,758.80
2023-04-29T02:47:43.831Z,765.90
2023-04-29T02:50:12.436Z,768.97
2023-04-29T02:52:41.859Z,750.90
2023-04-29T02:55:10.658Z,767.60
2023-04-29T02:57:39.068Z,768.58
2023-04-29T03:00:08.915Z,754.50
2023-04-29T03:02:37.575Z,749.33
2023-04-29T03:05:08.189Z,774.85
2023-04-29T03:07:37.041Z,754.22
2023-04-29T03:10:06.040Z,749.15
2023-04-29T03:12:34.691Z,766.92
2023-04-29T03:15:03.065Z,760.78
2023-04-29T03:17:31.969Z,769.22
2023-04-29T03:20:00.283Z,780.88
2023-04-29T03:22:29.981Z,764.78
2023-04-29T03:24:58.325Z,747.42
2023-04-29T03:27:26.603Z,753.92
2023-04-29T03:29:55.173Z,763.58
2023-04-29T03:32:24.125Z,763.25
2023-04-29T03:34:52.585Z,745.17
2023-04-29T03:37:20.944Z,749.70
2023-04-29T03:39:51.007Z,776.08
2023-04-29T03:42:19.552Z,758.72
2023-04-29T03:44:47.882Z,772.78
2023-04-29T03:47:16.297Z,773.25
2023-04-29T03:49:44.620Z,755.80
2023-04-29T03:52:13.419Z,765.60
2023-04-29T03:54:41.749Z,762.92
2023-04-29T03:57:11.621Z,792.20
2023-04-29T03:59:40.097Z,775.13
2023-04-29T04:02:08.585Z,767.70
2023-04-29T04:04:37.120Z,760.03
2023-04-29T04:07:06.098Z,755.00
2023-04-29T04:09:34.490Z,735.72
2023-04-29T04:12:03.097Z,759.67
2023-04-29T04:14:32.825Z,754.85
2023-04-29T04:17:01.209Z,713.40
2023-04-29T04:19:31.088Z,721.33
2023-04-29T04:21:59.485Z,730.92
2023-04-29T04:24:27.799Z,774.03
2023-04-29T04:26:56.144Z,682.25
2023-04-29T04:29:24.472Z,753.25
2023-04-29T04:31:54.218Z,765.38
2023-04-29T04:34:22.628Z,746.13
2023-04-29T04:36:51.453Z,737.50
2023-04-29T04:39:19.847Z,691.88
2023-04-29T04:41:48.205Z,715.10
2023-04-29T04:44:16.637Z,684.42
2023-04-29T04:46:45.016Z,733.95
2023-04-29T04:49:14.705Z,720.45
2023-04-29T04:51:46.017Z,705.28
2023-04-29T04:54:14.333Z,706.22
2023-04-29T04:56:42.730Z,704.42
2023-04-29T04:59:11.107Z,696.42
2023-04-29T05:01:39.562Z,688.80
2023-04-29T05:04:08.134Z,677.88
2023-04-29T05:06:37.894Z,644.78
2023-04-29T05:09:06.945Z,649.03
2023-04-29T05:11:35.446Z,672.83
2023-04-29T05:14:03.954Z,678.10
2023-04-29T05:16:32.325Z,690.45
2023-04-29T05:19:00.701Z,703.75
2023-04-29T05:21:29.008Z,721.40
2023-04-29T05:23:58.827Z,725.42
2023-04-29T05:26:27.148Z,710.00
2023-04-29T05:28:55.502Z,758.13
2023-04-29T05:31:23.905Z,753.85
2023-04-29T05:33:52.484Z,756.42
2023-04-29T05:36:20.830Z,729.15
2023-04-29T05:38:49.226Z,735.97
2023-04-29T05:41:18.901Z,745.63
2023-04-29T05:43:47.243Z,726.25
2023-04-29T05:46:16.518Z,707.72
2023-04-29T05:48:45.155Z,672.42
2023-04-29T05:51:14.712Z,656.50
2023-04-29T05:53:43.188Z,640.72
2023-04-29T05:56:11.587Z,661.30
2023-04-29T05:58:41.383Z,664.63
2023-04-29T06:01:11.106Z,684.10
2023-04-29T06:03:39.835Z,657.10
2023-04-29T06:06:08.574Z,677.92
2023-04-29T06:08:37.033Z,676.13
2023-04-29T06:11:19.780Z,655.83
2023-04-29T06:13:51.946Z,659.88
2023-04-29T06:16:20.601Z,664.63
2023-04-29T06:18:51.785Z,654.42
2023-04-29T06:24:08.050Z,668.47
2023-04-29T06:26:36.707Z,657.90
2023-04-29T06:29:21.834Z,643.85
2023-04-29T06:31:51.831Z,689.38
2023-04-29T06:34:25.531Z,630.47
2023-04-29T06:36:53.924Z,631.45
2023-04-29T06:39:22.296Z,643.05
2023-04-29T06:41:51.591Z,649.97
2023-04-29T06:44:22.517Z,650.42
2023-04-29T06:46:51.612Z,657.63
2023-04-29T06:49:20.199Z,648.83
2023-04-29T06:51:49.317Z,645.58
2023-04-29T06:54:17.793Z,703.42
2023-04-29T06:56:48.264Z,674.67
2023-04-29T06:59:16.722Z,670.08
2023-04-29T07:01:47.770Z,692.75
2023-04-29T07:04:18.275Z,667.25
2023-04-29T07:06:47.339Z,681.30
2023-04-29T07:09:18.886Z,754.33
2023-04-29T07:11:47.945Z,699.75
2023-04-29T07:14:16.550Z,685.83
2023-04-29T07:16:46.955Z,704.45
2023-04-29T07:19:18.842Z,696.17
2023-04-29T07:21:47.512Z,689.88
2023-04-29T07:24:16.267Z,757.38
2023-04-29T07:26:46.211Z,660.60
2023-04-29T07:29:27.583Z,661.65
2023-04-29T07:32:15.116Z,691.00
2023-04-29T07:35:01.351Z,763.53
2023-04-29T07:37:37.612Z,704.33
2023-04-29T07:40:20.899Z,736.63
2023-04-29T07:42:54.539Z,714.05
2023-04-29T07:45:28.085Z,695.97
2023-04-29T07:48:10.769Z,696.95
2023-04-29T07:50:51.907Z,684.30
2023-04-29T07:53:54.472Z,677.63
2023-04-29T08:01:09.727Z,771.92
2023-04-29T08:03:53.376Z,687.63
2023-04-29T08:06:29.141Z,668.17
2023-04-29T08:09:02.153Z,704.75
2023-04-29T08:11:33.560Z,717.65
2023-04-29T08:14:05.292Z,785.78
2023-04-29T08:16:37.826Z,727.97
2023-04-29T08:19:14.706Z,727.95
2023-04-29T08:21:43.756Z,733.05
2023-04-29T08:24:12.215Z,722.58
2023-04-29T08:26:42.469Z,722.90
2023-04-29T08:29:11.107Z,725.95
2023-04-29T08:31:39.931Z,726.03
2023-04-29T08:34:08.566Z,727.42
2023-04-29T08:36:38.664Z,715.85
2023-04-29T08:39:07.250Z,759.33
2023-04-29T08:41:36.051Z,760.70
2023-04-29T08:44:04.566Z,780.67
2023-04-29T08:46:34.706Z,800.55
2023-04-29T08:49:05.528Z,761.08
2023-04-29T08:51:35.133Z,737.28
2023-04-29T08:54:06.551Z,787.33
2023-04-29T08:56:38.421Z,747.13
2023-04-29T08:59:08.627Z,777.92
2023-04-29T09:01:38.696Z,797.15
2023-04-29T09:04:14.066Z,688.05
2023-04-29T09:06:42.770Z,723.80
2023-04-29T09:09:14.819Z,720.47
2023-04-29T09:11:43.482Z,722.75
2023-04-29T09:14:12.408Z,719.20
2023-04-29T09:16:41.034Z,694.67
2023-04-29T09:19:10.033Z,760.42
2023-04-29T09:21:38.581Z,713.60
2023-04-29T09:24:07.055Z,724.05
2023-04-29T09:26:54.154Z,791.53
2023-04-29T09:32:39.316Z,750.28
2023-04-29T09:35:33.853Z,712.05
2023-04-29T09:38:14.496Z,686.25
2023-04-29T09:40:57.680Z,791.00
2023-04-29T09:43:29.168Z,758.22
2023-04-29T09:45:58.111Z,667.97
2023-04-29T09:48:34.484Z,667.70
2023-04-29T09:51:04.484Z,670.75
2023-04-29T09:53:37.853Z,710.05
2023-04-29T09:56:07.303Z,687.55
2023-04-29T09:58:39.025Z,721.97
2023-04-29T10:01:08.374Z,698.35
2023-04-29T10:03:40.610Z,794.92
2023-04-29T10:06:10.004Z,697.60
2023-04-29T10:08:38.996Z,718.60
2023-04-29T10:11:07.599Z,847.05
2023-04-29T10:13:38.873Z,719.47
2023-04-29T10:16:16.876Z,711.65
2023-04-29T10:18:55.221Z,723.78
2023-04-29T10:21:29.667Z,798.22
2023-04-29T10:26:29.567Z,690.40
2023-04-29T10:29:01.056Z,760.40
2023-04-29T10:31:30.173Z,713.70
2023-04-29T10:34:00.531Z,717.65
2023-04-29T10:36:30.908Z,707.47
2023-04-29T10:39:09.895Z,715.25
2023-04-29T10:52:20.665Z,673.08
2023-04-29T10:55:03.943Z,690.58
2023-04-29T10:57:32.457Z,696.80
2023-04-29T11:00:00.809Z,702.17
2023-04-29T11:02:29.236Z,672.90
2023-04-29T11:05:12.427Z,719.72
2023-04-29T11:07:44.321Z,684.08
2023-04-29T11:10:14.823Z,695.80
2023-04-29T11:12:44.837Z,702.85
2023-04-29T11:15:19.931Z,697.92
2023-04-29T11:17:48.730Z,707.85
2023-04-29T11:24:00.068Z,738.05
2023-04-29T11:26:29.642Z,707.38
2023-04-29T11:28:59.298Z,693.08
2023-04-29T11:31:32.941Z,711.38
2023-04-29T11:34:01.588Z,641.20
2023-04-29T11:36:30.290Z,606.67
2023-04-29T11:39:01.985Z,622.65
2023-04-29T11:41:31.507Z,665.13
2023-04-29T11:44:01.336Z,717.35
2023-04-29T11:46:32.624Z,709.95
2023-04-29T11:49:01.624Z,639.20
2023-04-29T11:51:30.053Z,663.65
2023-04-29T11:54:00.056Z,658.60
2023-04-29T11:56:28.451Z,693.05
2023-04-29T11:58:57.911Z,702.15
2023-04-29T12:01:27.639Z,738.63
2023-04-29T12:04:01.074Z,720.83
2023-04-29T12:06:31.637Z,751.38
2023-04-29T12:09:04.387Z,635.60
2023-04-29T12:11:32.733Z,654.97
2023-04-29T12:14:04.248Z,628.50
2023-04-29T12:16:33.048Z,622.80
2023-04-29T12:19:01.559Z,630.45
2023-04-29T12:21:31.690Z,786.40
2023-04-29T12:24:04.587Z,749.85
2023-04-29T12:26:33.435Z,716.53
2023-04-29T12:29:01.863Z,681.72
2023-04-29T12:31:36.682Z,703.42
2023-04-29T12:34:07.618Z,753.47
2023-04-29T12:36:50.138Z,720.95
2023-04-29T12:39:20.126Z,721.65
2023-04-29T12:41:48.528Z,685.22
2023-04-29T12:44:17.883Z,706.72
2023-04-29T12:47:00.802Z,715.65
2023-04-29T12:49:41.387Z,715.25
2023-04-29T12:52:10.487Z,815.72
2023-04-29T12:54:41.772Z,740.08
2023-04-29T12:57:10.921Z,699.65
2023-04-29T12:59:39.763Z,784.92
2023-04-29T13:02:08.724Z,716.38
2023-04-29T13:04:38.132Z,760.45
2023-04-29T13:07:07.956Z,705.75
2023-04-29T13:09:38.132Z,709.33
2023-04-29T13:12:08.226Z,702.20
2023-04-29T13:14:36.586Z,686.90
2023-04-29T13:17:05.205Z,710.28
2023-04-29T13:19:48.062Z,728.67
2023-04-29T13:22:19.390Z,687.35
2023-04-29T13:24:47.816Z,685.78
2023-04-29T13:27:17.512Z,738.45
2023-04-29T13:29:46.462Z,667.20
2023-04-29T13:32:17.363Z,637.78
2023-04-29T13:34:46.501Z,649.58
2023-04-29T13:37:14.894Z,671.45
2023-04-29T13:39:45.744Z,586.70
2023-04-29T13:42:20.147Z,622.95
2023-04-29T13:45:04.257Z,695.13
2023-04-29T13:47:33.628Z,669.58
2023-04-29T13:50:25.540Z,637.15
2023-04-29T14:03:02.722Z,668.40
2023-04-29T14:05:31.320Z,640.03
2023-04-29T14:08:00.333Z,628.88
2023-04-29T14:10:28.732Z,618.50
2023-04-29T14:12:58.425Z,652.33
2023-04-29T14:15:26.863Z,623.45
2023-04-29T14:17:55.537Z,619.92
2023-04-29T14:20:24.108Z,627.25
2023-04-29T14:22:53.011Z,619.95
2023-04-29T14:25:21.455Z,614.88
2023-04-29T14:27:49.866Z,608.88
2023-04-29T14:30:20.066Z,654.28
2023-04-29T14:32:48.627Z,613.92
2023-04-29T14:35:17.211Z,638.40
2023-04-29T14:37:46.537Z,670.13
2023-04-29T14:40:15.505Z,634.03
2023-04-29T14:42:44.462Z,658.17
2023-04-29T14:45:13.559Z,791.72
2023-04-29T14:47:45.470Z,653.88
2023-04-29T14:50:13.951Z,657.90
2023-04-29T14:52:42.497Z,643.10
2023-04-29T14:55:11.597Z,670.40
2023-04-29T14:57:40.023Z,731.63
2023-04-29T15:00:09.550Z,613.22
2023-04-29T15:02:38.032Z,642.95
2023-04-29T15:05:08.469Z,647.22
2023-04-29T15:07:37.027Z,683.55
2023-04-29T15:10:09.340Z,586.20
2023-04-29T15:12:40.838Z,608.60
2023-04-29T15:15:10.709Z,641.33
2023-04-29T15:17:41.295Z,600.45
2023-04-29T15:20:12.521Z,653.92
2023-04-29T15:22:41.527Z,609.50
2023-04-29T15:25:10.873Z,649.05
2023-04-29T15:27:39.924Z,626.75
2023-04-29T15:30:09.697Z,625.58
2023-04-29T15:32:38.922Z,656.63
2023-04-29T15:35:11.781Z,594.42
2023-04-29T15:37:41.695Z,575.10
2023-04-29T15:40:11.490Z,589.03
2023-04-29T15:42:39.906Z,595.78
2023-04-29T15:45:09.719Z,699.20
2023-04-29T15:47:38.255Z,604.72
2023-04-29T15:50:07.980Z,601.13
2023-04-29T15:52:36.857Z,600.97
2023-04-29T15:55:08.571Z,589.03
2023-04-29T15:57:41.202Z,623.22
2023-04-29T16:00:12.382Z,589.00
2023-04-29T16:02:40.995Z,620.10
2023-04-29T16:05:09.902Z,655.85
2023-04-29T16:07:38.311Z,608.00
2023-04-29T16:10:09.791Z,637.78
2023-04-29T16:12:38.153Z,653.38
2023-04-29T16:15:08.566Z,630.70
2023-04-29T16:17:37.103Z,649.67
2023-04-29T16:20:05.941Z,665.92
2023-04-29T16:22:34.293Z,658.35
2023-04-29T16:25:03.932Z,692.65
2023-04-29T16:27:33.676Z,664.45
2023-04-29T16:30:02.314Z,628.47
2023-04-29T16:32:31.034Z,645.17
2023-04-29T16:35:01.376Z,652.67
2023-04-29T16:37:30.553Z,635.05
2023-04-29T16:39:59.290Z,633.13
2023-04-29T16:42:27.639Z,653.22
2023-04-29T16:44:57.484Z,655.45
2023-04-29T16:47:26.123Z,656.33
2023-04-29T16:49:55.492Z,615.67
2023-04-29T16:52:24.628Z,612.45
2023-04-29T16:54:53.140Z,625.67
2023-04-29T16:57:21.648Z,673.78
2023-04-29T16:59:49.950Z,631.55
2023-04-29T17:02:19.640Z,631.40
2023-04-29T17:04:48.050Z,710.63
2023-04-29T17:07:19.349Z,702.47
2023-04-29T17:09:48.358Z,610.75
2023-04-29T17:12:16.783Z,595.38
2023-04-29T17:14:45.277Z,652.35
2023-04-29T17:17:13.724Z,604.08
2023-04-29T17:19:43.557Z,633.35
2023-04-29T17:22:11.995Z,618.90
2023-04-29T17:24:40.747Z,651.85
2023-04-29T17:27:09.680Z,722.22
2023-04-29T17:29:42.997Z,624.25
2023-04-29T17:32:13.353Z,638.42
2023-04-29T17:34:43.487Z,624.67
2023-04-29T17:37:11.862Z,639.15
2023-04-29T17:39:40.669Z,627.88
2023-04-29T17:42:09.141Z,620.08
2023-04-29T17:44:38.105Z,612.70
2023-04-29T17:47:09.198Z,624.28
2023-04-29T17:49:37.534Z,616.17
2023-04-29T17:52:07.352Z,687.70
2023-04-29T17:54:35.827Z,608.05
2023-04-29T17:57:04.515Z,640.13
2023-04-29T17:59:32.896Z,725.38
2023-04-29T18:02:01.366Z,614.67
2023-04-29T18:04:29.983Z,593.72
2023-04-29T18:06:58.334Z,615.10
2023-04-29T18:09:28.039Z,626.42
2023-04-29T18:11:56.457Z,600.33
2023-04-29T18:14:24.803Z,609.97
2023-04-29T18:16:53.166Z,589.65
2023-04-29T18:19:21.563Z,584.00
2023-04-29T18:21:49.998Z,621.13
2023-04-29T18:24:18.579Z,607.60
2023-04-29T18:26:48.261Z,603.25
2023-04-29T18:29:16.602Z,633.58
2023-04-29T18:31:45.050Z,636.75
2023-04-29T18:34:13.467Z,612.13
2023-04-29T18:36:41.837Z,633.05
2023-04-29T18:39:10.210Z,638.50
2023-04-29T18:41:38.572Z,623.95
2023-04-29T18:44:08.288Z,607.35
2023-04-29T18:46:36.765Z,646.38
2023-04-29T18:49:05.133Z,612.22
2023-04-29T18:51:33.453Z,592.28
2023-04-29T18:54:01.781Z,587.20
2023-04-29T18:56:30.167Z,603.50
2023-04-29T18:59:00.729Z,616.67
2023-04-29T19:01:30.528Z,620.60
2023-04-29T19:03:59.007Z,610.20
2023-04-29T19:06:27.422Z,620.33
2023-04-29T19:08:56.202Z,613.85
2023-04-29T19:11:26.412Z,605.10
2023-04-29T19:13:55.114Z,609.47
2023-04-29T19:16:23.776Z,632.97
2023-04-29T19:18:53.505Z,608.90
2023-04-29T19:21:23.276Z,584.47
2023-04-29T19:23:52.214Z,613.45
2023-04-29T19:26:20.845Z,603.40
2023-04-29T19:28:49.230Z,604.40
2023-04-29T19:31:18.099Z,596.67
2023-04-29T19:33:46.623Z,581.00
2023-04-29T19:36:18.564Z,606.78
2023-04-29T19:38:47.675Z,678.03
2023-04-29T19:41:16.207Z,600.17
2023-04-29T19:43:44.646Z,632.33
2023-04-29T19:46:13.964Z,628.25
2023-04-29T19:48:42.330Z,596.03
2023-04-29T19:51:11.233Z,599.90
2023-04-29T19:53:41.038Z,628.28
2023-04-29T19:56:09.605Z,638.05
2023-04-29T19:58:38.127Z,597.28
2023-04-29T20:01:06.657Z,605.78
2023-04-29T20:03:39.319Z,641.67
2023-04-29T20:06:08.831Z,664.72
2023-04-29T20:08:37.292Z,630.83
2023-04-29T20:11:06.997Z,610.15
2023-04-29T20:13:35.482Z,612.15
2023-04-29T20:16:03.851Z,617.60
2023-04-29T20:18:32.206Z,625.53
2023-04-29T20:21:00.547Z,624.60
2023-04-29T20:23:28.925Z,603.25
2023-04-29T20:25:57.320Z,628.03
2023-04-29T20:28:27.017Z,615.90
2023-04-29T20:30:55.679Z,636.30
2023-04-29T20:33:24.085Z,629.72
2023-04-29T20:35:52.628Z,640.53
2023-04-29T20:38:22.543Z,594.55
2023-04-29T20:40:54.307Z,624.17
2023-04-29T20:43:22.741Z,607.95
2023-04-29T20:45:52.500Z,593.25
2023-04-29T20:48:21.054Z,604.80
2023-04-29T20:50:49.686Z,610.10
2023-04-29T20:53:18.050Z,602.30
2023-04-29T20:55:46.439Z,609.97
2023-04-29T20:58:16.298Z,607.00
2023-04-29T21:00:44.625Z,605.83
2023-04-29T21:03:14.322Z,602.30
2023-04-29T21:05:42.628Z,592.38
2023-04-29T21:08:11.562Z,622.25
2023-04-29T21:10:40.264Z,609.92
2023-04-29T21:13:08.608Z,619.78
2023-04-29T21:15:37.237Z,618.17
2023-04-29T21:18:05.910Z,615.30
2023-04-29T21:20:35.928Z,619.58
2023-04-29T21:23:04.396Z,590.50
2023-04-29T21:25:32.754Z,611.67
2023-04-29T21:28:01.164Z,601.45
2023-04-29T21:30:29.578Z,608.95
2023-04-29T21:32:58.078Z,598.83
2023-04-29T21:35:27.325Z,587.38
2023-04-29T21:37:57.416Z,625.00
2023-04-29T21:40:26.506Z,599.50
2023-04-29T21:42:55.395Z,593.05
2023-04-29T21:45:24.058Z,605.30
2023-04-29T21:47:52.644Z,621.47
2023-04-29T21:50:21.139Z,658.20
2023-04-29T21:52:50.591Z,602.35
2023-04-29T21:55:20.510Z,606.40
2023-04-29T21:57:48.857Z,591.05
2023-04-29T22:00:32.670Z,602.45
2023-04-29T22:03:02.249Z,601.73
2023-04-29T22:05:31.416Z,598.10
2023-04-29T22:08:01.157Z,592.10
2023-04-29T22:10:31.225Z,652.70
2023-04-29T22:12:59.887Z,625.38
2023-04-29T22:15:29.430Z,614.33
2023-04-29T22:17:58.417Z,600.67
2023-04-29T22:20:27.395Z,628.10
2023-04-29T22:22:55.993Z,638.40
2023-04-29T22:25:24.668Z,633.95
2023-04-29T22:27:54.449Z,641.25
2023-04-29T22:30:22.778Z,637.78
2023-04-29T22:32:51.108Z,618.55
2023-04-29T22:35:19.713Z,608.33
2023-04-29T22:37:48.063Z,644.25
2023-04-29T22:40:18.721Z,627.22
2023-04-29T22:42:47.084Z,626.05
2023-04-29T22:45:16.969Z,618.42
2023-04-29T22:47:45.392Z,661.45
2023-04-29T22:50:14.010Z,617.50
2023-04-29T22:52:42.412Z,634.50
2023-04-29T22:55:11.086Z,627.60
2023-04-29T22:57:39.457Z,638.92
2023-04-29T23:00:09.695Z,664.33
2023-04-29T23:02:40.042Z,648.60
2023-04-29T23:05:09.091Z,618.38
2023-04-29T23:07:37.458Z,646.70
2023-04-29T23:10:06.493Z,620.13
2023-04-29T23:12:34.812Z,677.85
2023-04-29T23:15:03.651Z,648.13
2023-04-29T23:17:33.869Z,624.92
2023-04-29T23:20:04.084Z,628.53
2023-04-29T23:22:32.401Z,626.20
2023-04-29T23:25:00.991Z,635.63
2023-04-29T23:27:29.460Z,636.85
2023-04-29T23:29:57.807Z,634.90
2023-04-29T23:32:26.195Z,657.65
2023-04-29T23:34:54.563Z,626.00
2023-04-29T23:37:24.227Z,634.97
2023-04-29T23:39:52.899Z,621.13
2023-04-29T23:42:21.272Z,641.60
2023-04-29T23:44:50.354Z,610.63
2023-04-29T23:47:18.714Z,605.97
2023-04-29T23:49:47.159Z,620.40
2023-04-29T23:52:15.525Z,620.33
2023-04-29T23:54:45.295Z,617.70
2023-04-29T23:57:13.655Z,637.97
2023-04-29T23:59:43.627Z,620.85
